KBRL

Southeast Iowa Regional Airport

Airport
ICAO code
KBRL
Summary
ICAO Region
NAM
ICAO Territory
Location

Burlington, Iowa,

Coordinates
40° 46' 46" N , 91° 7' 24" W
KCC
Airport CFIT
Altimeter Temperature Error Correction
Metar
Observation
KBRL 311008Z AUTO 20018G25KT 10SM OVC029 15/11 A2962 RMK AO2 T01500111
Station
Burlington, Burlington Regional Airport
Date/Time
2023-03-31 10:08:00
Wind direction
200°
Wind speed
18 kts
Lowest cloud amount
overcast
Temperature
15°C
Dew point
11.1°C
Humidity
77%
Weather condition
n/a

Description

Southeast Iowa Regional Airport is a public use airport located 4 km southwest of the central business district of Burlington, a city in Des Moines County, Iowa.

Climatology

Humid continental climate (Köppen climate classification Dfa) - characterized by four seasons: cold, windy, snowy winters, mild springs, hot, humid summers, and crisp and relatively short autumns. Precipitation reaches its lowest in January and February and peaks in summer and latter half of spring.

Airport map

Aerial View

SKYbrary Partners:

Safety knowledge contributed by: